createdAt,value
2023-11-30T00:00:51.406Z,68.26
2023-11-30T00:04:02.656Z,68.22
2023-11-30T00:07:13.812Z,68.20
2023-11-30T00:10:33.326Z,68.22
2023-11-30T00:14:03.229Z,68.32
2023-11-30T00:17:04.923Z,68.36
2023-11-30T00:20:19.227Z,68.27
2023-11-30T00:23:39.903Z,68.31
2023-11-30T00:27:13.657Z,68.22
2023-11-30T00:30:20.108Z,68.40
2023-11-30T00:33:36.578Z,68.42
2023-11-30T00:37:00.466Z,68.30
2023-11-30T00:40:42.845Z,68.37
2023-11-30T00:44:24.676Z,68.28
2023-11-30T00:48:08.056Z,68.31
2023-11-30T00:51:22.137Z,68.36
2023-11-30T00:54:58.598Z,68.44
2023-11-30T00:58:29.544Z,68.50
2023-11-30T01:02:02.720Z,68.48
2023-11-30T01:05:51.797Z,68.52
2023-11-30T01:09:32.759Z,68.52
2023-11-30T01:12:44.179Z,68.61
2023-11-30T01:15:41.460Z,68.48
2023-11-30T01:18:19.380Z,68.63
2023-11-30T01:20:58.422Z,68.57
2023-11-30T01:23:41.764Z,68.53
2023-11-30T01:26:30.100Z,68.58
2023-11-30T01:29:12.827Z,68.53
2023-11-30T01:31:50.438Z,68.59
2023-11-30T01:34:47.468Z,68.56
2023-11-30T01:38:17.587Z,68.59
2023-11-30T01:41:37.412Z,68.61
2023-11-30T01:44:28.438Z,68.57
2023-11-30T01:48:06.684Z,68.61
2023-11-30T01:51:08.470Z,68.69
2023-11-30T01:54:36.587Z,68.59
2023-11-30T01:57:32.073Z,68.54
2023-11-30T02:00:41.470Z,68.59
2023-11-30T02:03:37.955Z,68.59
2023-11-30T02:06:40.438Z,68.60
2023-11-30T02:09:32.916Z,68.69
2023-11-30T02:12:35.632Z,68.63
2023-11-30T02:15:41.159Z,68.76
2023-11-30T02:18:49.796Z,68.73
2023-11-30T02:22:04.272Z,68.78
2023-11-30T02:24:48.383Z,68.69
2023-11-30T02:27:46.310Z,68.80
2023-11-30T02:30:15.234Z,68.74
2023-11-30T02:33:09.514Z,68.87
2023-11-30T02:36:08.912Z,68.77
2023-11-30T02:39:07.296Z,68.86
2023-11-30T02:42:07.666Z,68.89
2023-11-30T02:45:05.539Z,68.79
2023-11-30T02:48:03.778Z,68.88
2023-11-30T02:50:35.294Z,68.98
2023-11-30T02:53:04.303Z,68.97
2023-11-30T02:55:38.805Z,69.01
2023-11-30T02:59:16.233Z,69.02
2023-11-30T03:02:28.092Z,68.95
2023-11-30T03:05:47.583Z,69.03
2023-11-30T03:08:50.236Z,69.00
2023-11-30T03:11:25.039Z,68.94
2023-11-30T03:14:23.899Z,68.94
2023-11-30T03:17:07.564Z,68.92
2023-11-30T03:20:17.842Z,68.86
2023-11-30T03:23:35.432Z,68.88
2023-11-30T03:26:49.914Z,69.03
2023-11-30T03:29:49.348Z,68.95
2023-11-30T03:32:49.037Z,69.02
2023-11-30T03:35:55.254Z,68.96
2023-11-30T03:39:44.993Z,69.01
2023-11-30T03:42:40.573Z,69.06
2023-11-30T03:45:43.774Z,68.89
2023-11-30T03:48:37.248Z,68.97
2023-11-30T03:51:31.632Z,68.96
2023-11-30T03:54:45.083Z,68.91
2023-11-30T03:58:06.422Z,69.07
2023-11-30T04:01:00.905Z,69.01
2023-11-30T04:04:27.324Z,68.99
2023-11-30T04:07:49.472Z,69.06
2023-11-30T04:11:05.626Z,69.00
2023-11-30T04:14:07.304Z,69.03
2023-11-30T04:17:28.244Z,69.02
2023-11-30T04:20:43.770Z,69.02
2023-11-30T04:23:47.130Z,69.13
2023-11-30T04:26:52.714Z,69.08
2023-11-30T04:29:45.123Z,69.17
2023-11-30T04:33:05.364Z,69.20
2023-11-30T04:35:54.130Z,69.17
2023-11-30T04:39:21.575Z,69.14
2023-11-30T04:42:50.478Z,69.11
2023-11-30T04:46:28.328Z,69.20
2023-11-30T04:49:21.766Z,69.14
2023-11-30T04:52:04.248Z,69.26
2023-11-30T04:54:52.830Z,69.13
2023-11-30T04:57:59.784Z,69.22
2023-11-30T05:00:52.530Z,69.21
2023-11-30T05:03:41.479Z,69.18
2023-11-30T05:06:31.307Z,69.16
2023-11-30T05:09:13.065Z,69.23
2023-11-30T05:12:05.619Z,69.22
2023-11-30T05:14:37.672Z,69.23
2023-11-30T05:17:17.925Z,69.28
2023-11-30T05:20:04.642Z,69.20
2023-11-30T05:22:52.110Z,69.36
2023-11-30T05:25:44.816Z,69.22
2023-11-30T05:28:35.731Z,69.28
2023-11-30T05:31:09.167Z,69.35
2023-11-30T05:33:45.613Z,69.39
2023-11-30T05:36:14.701Z,69.22
2023-11-30T05:39:09.016Z,69.21
2023-11-30T05:42:18.314Z,69.24
2023-11-30T05:45:24.071Z,69.30
2023-11-30T05:48:34.098Z,69.28
2023-11-30T05:51:34.833Z,69.39
2023-11-30T05:55:01.967Z,69.38
2023-11-30T05:58:23.264Z,69.34
2023-11-30T06:01:26.781Z,69.32
2023-11-30T06:04:27.834Z,69.32
2023-11-30T06:07:34.911Z,69.25
2023-11-30T06:10:33.159Z,69.30
2023-11-30T06:13:09.082Z,69.35
2023-11-30T06:16:09.082Z,69.30
2023-11-30T06:19:05.948Z,69.28
2023-11-30T06:22:15.694Z,69.24
2023-11-30T06:25:37.290Z,69.25
2023-11-30T06:29:17.664Z,69.22
2023-11-30T06:32:49.584Z,69.12
2023-11-30T06:36:13.512Z,69.26
2023-11-30T06:39:28.148Z,69.32
2023-11-30T06:42:45.318Z,69.25
2023-11-30T06:45:45.750Z,69.28
2023-11-30T06:48:26.799Z,69.28
2023-11-30T06:51:40.829Z,69.20
2023-11-30T06:55:03.420Z,69.20
2023-11-30T06:58:08.201Z,69.12
2023-11-30T07:01:27.131Z,69.20
2023-11-30T07:04:42.759Z,69.07
2023-11-30T07:07:37.898Z,69.15
2023-11-30T07:10:52.617Z,69.20
2023-11-30T07:14:04.888Z,69.10
2023-11-30T07:17:01.068Z,69.15
2023-11-30T07:20:03.117Z,69.11
2023-11-30T07:22:48.095Z,69.11
2023-11-30T07:25:47.649Z,69.12
2023-11-30T07:28:57.276Z,69.19
2023-11-30T07:32:05.650Z,69.09
2023-11-30T07:35:22.661Z,68.97
2023-11-30T07:38:10.974Z,69.07
2023-11-30T07:41:18.084Z,69.13
2023-11-30T07:44:04.724Z,69.14
2023-11-30T07:46:49.220Z,69.08
2023-11-30T07:50:07.972Z,69.04
2023-11-30T07:52:56.077Z,69.03
2023-11-30T07:56:11.710Z,69.03
2023-11-30T07:59:18.277Z,69.08
2023-11-30T08:02:05.543Z,69.01
2023-11-30T08:04:55.037Z,68.99
2023-11-30T08:07:33.290Z,69.06
2023-11-30T08:10:18.295Z,69.01
2023-11-30T08:13:02.333Z,68.99
2023-11-30T08:15:45.940Z,69.02
2023-11-30T08:19:08.810Z,69.07
2023-11-30T08:21:48.424Z,69.03
2023-11-30T08:24:58.352Z,69.06
2023-11-30T08:28:23.124Z,69.05
2023-11-30T08:31:47.509Z,69.00
2023-11-30T08:35:00.030Z,68.99
2023-11-30T08:38:31.468Z,68.92
2023-11-30T08:41:37.470Z,68.86
2023-11-30T08:44:46.040Z,68.89
2023-11-30T08:47:51.157Z,68.97
2023-11-30T08:51:20.977Z,68.94
2023-11-30T08:54:55.722Z,68.97
2023-11-30T08:57:55.329Z,68.92
2023-11-30T09:01:40.056Z,68.94
2023-11-30T09:04:39.492Z,68.95
2023-11-30T09:08:20.499Z,68.83
2023-11-30T09:11:27.046Z,68.94
2023-11-30T09:14:35.320Z,68.89
2023-11-30T09:17:52.893Z,68.99
2023-11-30T09:20:58.069Z,68.98
2023-11-30T09:24:16.484Z,69.02
2023-11-30T09:27:17.720Z,68.95
2023-11-30T09:30:03.475Z,69.03
2023-11-30T09:33:08.426Z,68.97
2023-11-30T09:36:03.901Z,68.88
2023-11-30T09:38:53.453Z,68.89
2023-11-30T09:41:45.387Z,68.94
2023-11-30T09:44:48.614Z,69.02
2023-11-30T09:47:49.759Z,68.98
2023-11-30T09:50:55.982Z,69.07
2023-11-30T09:54:37.200Z,68.88
2023-11-30T09:58:11.958Z,69.08
2023-11-30T10:01:30.428Z,69.08
2023-11-30T10:04:30.780Z,68.90
2023-11-30T10:07:55.744Z,68.98
2023-11-30T10:11:52.397Z,68.95
2023-11-30T10:14:54.383Z,68.97
2023-11-30T10:17:58.134Z,68.96
2023-11-30T10:21:10.447Z,68.92
2023-11-30T10:24:40.052Z,68.88
2023-11-30T10:28:11.951Z,68.89
2023-11-30T10:31:04.105Z,68.97
2023-11-30T10:34:11.639Z,68.97
2023-11-30T10:37:39.208Z,68.97
2023-11-30T10:40:43.624Z,68.97
2023-11-30T10:44:15.248Z,68.94
2023-11-30T10:47:16.720Z,68.97
2023-11-30T10:50:33.538Z,68.95
2023-11-30T10:54:06.944Z,68.95
2023-11-30T10:56:54.518Z,69.01
2023-11-30T10:59:35.646Z,68.94
2023-11-30T11:02:20.783Z,68.92
2023-11-30T11:04:58.134Z,68.91
2023-11-30T11:07:36.294Z,68.98
2023-11-30T11:10:22.842Z,69.01
2023-11-30T11:13:13.008Z,68.96
2023-11-30T11:16:07.868Z,69.00
2023-11-30T11:19:23.114Z,69.10
2023-11-30T11:22:41.392Z,69.23
2023-11-30T11:26:10.655Z,69.24
2023-11-30T11:29:13.723Z,69.26
2023-11-30T11:32:20.718Z,69.22
2023-11-30T11:35:30.015Z,69.26
2023-11-30T11:38:06.705Z,69.30
2023-11-30T11:40:40.390Z,69.32
2023-11-30T11:43:15.226Z,69.35
2023-11-30T11:46:03.478Z,69.28
2023-11-30T11:48:37.778Z,69.36
2023-11-30T11:51:14.608Z,69.35
2023-11-30T11:53:52.295Z,69.43
2023-11-30T11:56:41.435Z,69.43
2023-11-30T11:59:40.042Z,69.40
2023-11-30T12:02:53.837Z,69.41
2023-11-30T12:05:57.960Z,69.49
2023-11-30T12:08:36.615Z,69.53
2023-11-30T12:11:31.085Z,69.67
2023-11-30T12:14:31.988Z,69.61
2023-11-30T12:17:11.974Z,69.68
2023-11-30T12:20:02.933Z,69.72
2023-11-30T12:22:40.001Z,69.63
2023-11-30T12:25:12.914Z,69.65
2023-11-30T12:27:42.216Z,69.56
2023-11-30T12:30:19.305Z,69.58
2023-11-30T12:33:00.725Z,69.64
2023-11-30T12:35:40.702Z,69.63
2023-11-30T12:38:32.064Z,69.65
2023-11-30T12:41:37.420Z,69.63
2023-11-30T12:44:18.048Z,69.62
2023-11-30T12:46:56.340Z,69.64
2023-11-30T12:49:39.525Z,69.69
2023-11-30T12:52:11.926Z,69.70
2023-11-30T12:54:52.738Z,69.66
2023-11-30T12:57:22.334Z,69.72
2023-11-30T12:59:51.021Z,69.70
2023-11-30T13:02:25.004Z,69.76
2023-11-30T13:05:03.498Z,69.77
2023-11-30T13:07:32.581Z,69.68
2023-11-30T13:10:02.024Z,69.63
2023-11-30T13:12:31.804Z,69.59
2023-11-30T13:15:05.401Z,69.68
2023-11-30T13:17:39.633Z,69.79
2023-11-30T13:20:16.149Z,69.61
2023-11-30T13:22:51.147Z,69.83
2023-11-30T13:25:49.007Z,69.68
2023-11-30T13:28:21.046Z,69.92
2023-11-30T13:31:02.963Z,69.76
2023-11-30T13:33:32.427Z,69.76
2023-11-30T13:36:03.773Z,69.81
2023-11-30T13:38:38.037Z,69.94
2023-11-30T13:41:14.030Z,69.97
2023-11-30T13:43:57.628Z,69.83
2023-11-30T13:46:39.235Z,69.76
2023-11-30T13:49:14.913Z,69.97
2023-11-30T13:51:46.043Z,69.84
2023-11-30T13:54:15.958Z,69.71
2023-11-30T13:56:47.020Z,69.82
2023-11-30T13:59:22.161Z,69.85
2023-11-30T14:01:53.659Z,69.84
2023-11-30T14:04:22.366Z,69.78
2023-11-30T14:06:51.396Z,69.87
2023-11-30T14:09:29.354Z,69.89
2023-11-30T14:12:05.715Z,69.87
2023-11-30T14:14:37.385Z,69.82
2023-11-30T14:17:14.781Z,69.92
2023-11-30T14:19:49.798Z,69.76
2023-11-30T14:22:24.653Z,69.86
2023-11-30T14:24:54.162Z,69.78
2023-11-30T14:27:27.801Z,69.79
2023-11-30T14:29:57.336Z,69.73
2023-11-30T14:32:36.240Z,69.75
2023-11-30T14:35:07.859Z,69.72
2023-11-30T14:37:37.049Z,69.68
2023-11-30T14:40:09.874Z,69.69
2023-11-30T14:42:47.506Z,69.71
2023-11-30T14:45:19.527Z,69.66
2023-11-30T14:47:53.165Z,69.76
2023-11-30T14:50:22.459Z,69.73
2023-11-30T14:52:54.994Z,69.77
2023-11-30T14:55:33.780Z,69.85
2023-11-30T14:58:07.897Z,69.72
2023-11-30T15:00:45.129Z,69.83
2023-11-30T15:05:48.696Z,69.92
2023-11-30T15:08:23.823Z,69.96
2023-11-30T15:10:58.846Z,69.97
2023-11-30T15:13:36.096Z,70.03
2023-11-30T15:16:08.891Z,69.92
2023-11-30T15:18:53.971Z,69.83
2023-11-30T15:21:29.640Z,69.91
2023-11-30T15:24:01.812Z,69.94
2023-11-30T15:26:48.962Z,69.99
2023-11-30T15:29:20.308Z,69.87
2023-11-30T15:31:58.272Z,69.89
2023-11-30T15:34:34.792Z,70.07
2023-11-30T15:37:36.548Z,69.99
2023-11-30T15:40:22.311Z,69.95
2023-11-30T15:43:04.981Z,70.07
2023-11-30T15:45:52.336Z,70.12
2023-11-30T15:48:41.012Z,70.00
2023-11-30T15:51:19.891Z,70.05
2023-11-30T15:54:00.634Z,70.14
2023-11-30T15:56:44.967Z,70.15
2023-11-30T15:59:17.358Z,70.16
2023-11-30T16:02:11.844Z,70.12
2023-11-30T16:04:48.657Z,70.08
2023-11-30T16:07:53.514Z,70.13
2023-11-30T16:10:40.826Z,70.13
2023-11-30T16:13:34.326Z,70.40
2023-11-30T16:16:11.086Z,70.26
2023-11-30T16:19:02.650Z,70.29
2023-11-30T16:22:04.130Z,70.34
2023-11-30T16:24:55.528Z,70.42
2023-11-30T16:28:16.481Z,70.34
2023-11-30T16:31:14.385Z,70.32
2023-11-30T16:34:10.815Z,70.32
2023-11-30T16:37:23.128Z,70.27
2023-11-30T16:40:08.423Z,70.31
2023-11-30T16:43:12.053Z,70.40
2023-11-30T16:46:13.469Z,70.42
2023-11-30T16:48:58.762Z,70.42
2023-11-30T16:52:04.877Z,70.43
2023-11-30T16:54:48.198Z,70.36
2023-11-30T16:57:35.239Z,70.41
2023-11-30T17:00:10.839Z,70.53
2023-11-30T17:02:54.786Z,70.58
2023-11-30T17:05:59.275Z,70.45
2023-11-30T17:09:05.511Z,70.53
2023-11-30T17:12:03.739Z,70.50
2023-11-30T17:14:59.382Z,70.55
2023-11-30T17:17:58.413Z,70.65
2023-11-30T17:20:47.604Z,70.60
2023-11-30T17:23:28.433Z,70.59
2023-11-30T17:26:23.173Z,70.66
2023-11-30T17:29:01.290Z,70.52
2023-11-30T17:31:47.747Z,70.67
2023-11-30T17:34:30.821Z,70.60
2023-11-30T17:37:17.644Z,70.59
2023-11-30T17:40:19.539Z,70.72
2023-11-30T17:42:51.188Z,70.71
2023-11-30T17:45:54.932Z,70.74
2023-11-30T19:24:24.229Z,69.83
2023-11-30T19:27:19.648Z,69.88
2023-11-30T19:30:06.558Z,69.78
2023-11-30T19:33:18.090Z,70.21
2023-11-30T19:36:01.865Z,69.98
2023-11-30T19:39:30.059Z,70.12
2023-11-30T19:42:38.940Z,70.29
2023-11-30T19:45:32.440Z,70.39
2023-11-30T19:48:45.354Z,70.24
2023-11-30T19:51:40.100Z,70.32
2023-11-30T19:54:33.489Z,70.24
2023-11-30T19:57:35.953Z,70.25
2023-11-30T20:00:14.259Z,70.26
2023-11-30T20:02:54.997Z,70.32
2023-11-30T20:05:40.854Z,70.25
2023-11-30T20:08:23.844Z,70.26
2023-11-30T20:10:56.275Z,70.38
2023-11-30T20:13:47.967Z,70.26
2023-11-30T20:17:00.843Z,70.40
2023-11-30T20:19:51.314Z,70.36
2023-11-30T20:23:11.152Z,70.32
2023-11-30T20:26:19.931Z,70.33
2023-11-30T20:29:06.767Z,70.37
2023-11-30T20:32:13.000Z,70.34
2023-11-30T20:35:32.740Z,70.37
2023-11-30T20:38:52.007Z,70.42
2023-11-30T20:41:48.934Z,70.43
2023-11-30T20:44:31.155Z,70.33
2023-11-30T20:47:34.587Z,70.33
2023-11-30T20:50:39.389Z,70.38
2023-11-30T20:53:15.874Z,70.35
2023-11-30T20:56:05.816Z,70.46
2023-11-30T20:59:05.295Z,70.40
2023-11-30T21:05:20.249Z,70.34
2023-11-30T21:08:41.173Z,70.38
2023-11-30T21:11:34.361Z,70.47
2023-11-30T21:14:28.189Z,70.53
2023-11-30T21:17:38.052Z,70.52
2023-11-30T21:21:04.804Z,70.52
2023-11-30T21:24:39.459Z,70.57
2023-11-30T21:27:33.165Z,70.65
2023-11-30T21:30:28.340Z,70.62
2023-11-30T21:33:18.485Z,70.66
2023-11-30T21:36:02.687Z,70.57
2023-11-30T21:38:46.740Z,70.63
2023-11-30T21:41:48.613Z,70.58
2023-11-30T21:44:38.749Z,70.67
2023-11-30T21:47:29.670Z,70.82
2023-11-30T21:50:45.673Z,70.78
2023-11-30T21:53:38.517Z,70.83
2023-11-30T21:56:24.414Z,70.75
2023-11-30T21:59:10.876Z,70.84
2023-11-30T22:01:43.049Z,70.88
2023-11-30T22:04:50.859Z,70.95
2023-11-30T22:07:48.613Z,71.00
2023-11-30T22:10:54.464Z,70.93
2023-11-30T22:14:11.473Z,70.93
2023-11-30T22:17:25.311Z,70.93
2023-11-30T22:20:36.388Z,70.84
2023-11-30T22:23:35.855Z,70.99
2023-11-30T22:26:28.960Z,70.92
2023-11-30T22:29:54.894Z,70.94
2023-11-30T22:32:53.863Z,70.97
2023-11-30T22:35:34.251Z,70.83
2023-11-30T22:38:46.389Z,70.92
2023-11-30T22:42:08.067Z,70.80
2023-11-30T22:45:05.688Z,70.85
2023-11-30T22:48:01.058Z,70.80
2023-11-30T22:50:33.334Z,70.73
2023-11-30T22:53:43.343Z,70.59
2023-11-30T22:57:21.183Z,70.69
2023-11-30T23:00:56.970Z,70.64
2023-11-30T23:03:46.740Z,70.62
2023-11-30T23:07:02.337Z,70.55
2023-11-30T23:10:21.451Z,70.55
2023-11-30T23:12:56.034Z,70.48
2023-11-30T23:15:44.175Z,70.44
2023-11-30T23:18:38.454Z,70.42
2023-11-30T23:21:38.780Z,70.46
2023-11-30T23:24:39.677Z,70.39
2023-11-30T23:27:22.087Z,70.46
2023-11-30T23:30:31.042Z,70.37
2023-11-30T23:33:39.882Z,70.42
2023-11-30T23:36:28.831Z,70.33
2023-11-30T23:39:17.124Z,70.35
2023-11-30T23:41:58.550Z,70.25
2023-11-30T23:45:12.031Z,70.36
2023-11-30T23:48:10.109Z,70.32
2023-11-30T23:51:00.658Z,70.34
2023-11-30T23:53:57.176Z,70.29
2023-11-30T23:56:33.490Z,70.29
2023-11-30T23:59:24.465Z,70.28
